createdAt,value
2019-02-10T10:41:52.901Z,97819.64
2019-02-10T10:44:27.722Z,97807.44
2019-02-10T10:47:09.391Z,97803.72
2019-02-10T10:49:47.785Z,97798.87
2019-02-10T10:52:31.127Z,97795.27
2019-02-10T10:55:11.314Z,97791.73
2019-02-10T10:57:48.437Z,97792.50
2019-02-10T11:00:22.735Z,97776.88
2019-02-10T11:02:55.462Z,97790.23
2019-02-10T11:05:25.714Z,97786.12
2019-02-10T11:08:01.482Z,97801.77
2019-02-10T11:10:33.851Z,97766.94
2019-02-10T11:13:39.569Z,97772.97
2019-02-10T11:16:33.594Z,97774.83
2019-02-10T11:19:18.097Z,97751.85
2019-02-10T11:22:23.918Z,97751.20
2019-02-10T11:25:25.080Z,97753.71
2019-02-10T11:28:10.912Z,97758.09
2019-02-10T11:31:00.689Z,97752.52
2019-02-10T11:33:56.159Z,97745.48
2019-02-10T11:36:39.233Z,97735.58
2019-02-10T11:39:28.331Z,97712.70
2019-02-10T11:42:21.111Z,97723.56
2019-02-10T11:45:02.265Z,97726.13
2019-02-10T11:47:40.818Z,97715.56
2019-02-10T11:50:18.847Z,97723.36
2019-02-10T11:52:48.814Z,97723.85
2019-02-10T11:55:18.704Z,97697.99
2019-02-10T11:57:54.972Z,97699.42
2019-02-10T12:00:31.074Z,97698.82
2019-02-10T12:03:04.057Z,97688.45
2019-02-10T12:05:37.119Z,97687.18
2019-02-10T12:08:10.907Z,97665.30
2019-02-10T12:10:41.653Z,97670.17
2019-02-10T12:13:16.039Z,97660.66
2019-02-10T12:15:53.751Z,97635.48
2019-02-10T12:18:28.309Z,97665.65
2019-02-10T12:21:08.975Z,97626.55
2019-02-10T12:23:41.744Z,97638.78
2019-02-10T12:26:13.106Z,97641.98
2019-02-10T12:28:48.350Z,97627.34
2019-02-10T12:31:23.906Z,97618.17
2019-02-10T12:33:56.195Z,97616.37
2019-02-10T12:36:29.212Z,97614.63
2019-02-10T12:39:01.388Z,97574.67
2019-02-10T12:41:47.803Z,97599.34
2019-02-10T12:44:22.541Z,97589.14
2019-02-10T12:47:12.961Z,97568.66
2019-02-10T12:49:51.288Z,97552.73
2019-02-10T12:52:28.328Z,97561.53
2019-02-10T12:55:02.932Z,97562.33
2019-02-10T12:57:38.266Z,97550.02
2019-02-10T13:00:20.211Z,97547.66
2019-02-10T13:03:05.617Z,97521.27
2019-02-10T13:05:48.650Z,97533.91
2019-02-10T13:08:30.678Z,97530.20
2019-02-10T13:11:08.137Z,97535.77
2019-02-10T13:13:51.462Z,97516.45
2019-02-10T13:16:31.610Z,97511.32
2019-02-10T13:19:09.749Z,97512.86
2019-02-10T13:22:07.024Z,97532.89
2019-02-10T13:24:45.234Z,97526.70
2019-02-10T13:27:30.762Z,97514.27
2019-02-10T13:30:18.138Z,97520.74
2019-02-10T13:32:59.248Z,97499.19
2019-02-10T13:35:39.959Z,97513.50
2019-02-10T13:38:14.580Z,97483.56
2019-02-10T13:40:47.848Z,97519.19
2019-02-10T13:43:33.541Z,97467.39
2019-02-10T13:46:08.559Z,97498.39
2019-02-10T13:48:51.848Z,97481.98
2019-02-10T13:51:56.992Z,97475.03
2019-02-10T13:54:41.359Z,97486.95
2019-02-10T13:57:27.638Z,97471.11
2019-02-10T14:00:30.582Z,97464.09
2019-02-10T14:03:04.471Z,97485.63
2019-02-10T14:06:01.987Z,97468.88
2019-02-10T14:08:43.774Z,97415.30
2019-02-10T14:11:24.638Z,97468.56
2019-02-10T14:14:23.084Z,97460.05
2019-02-10T14:17:10.919Z,97469.55
2019-02-10T14:19:41.574Z,97448.59
2019-02-10T14:22:28.389Z,97439.68
2019-02-10T14:25:19.184Z,97444.82
2019-02-10T14:28:02.058Z,97439.98
2019-02-10T14:30:37.215Z,97452.71
2019-02-10T14:33:12.313Z,97424.08
2019-02-10T14:35:42.413Z,97431.12
2019-02-10T14:38:19.797Z,97421.38
2019-02-10T14:40:59.731Z,97424.84
2019-02-10T14:43:35.527Z,97419.45
2019-02-10T14:46:05.518Z,97414.05
2019-02-10T14:48:41.046Z,97402.43
2019-02-10T14:51:11.721Z,97425.36
2019-02-10T14:53:46.233Z,97431.06
2019-02-10T14:56:24.539Z,97437.56
2019-02-10T14:58:58.609Z,97434.07
2019-02-10T15:01:39.981Z,97423.23
2019-02-10T15:04:19.944Z,97429.97
2019-02-10T15:07:08.531Z,97429.14
2019-02-10T15:09:42.653Z,97430.19
2019-02-10T15:12:19.106Z,97425.26
2019-02-10T15:14:50.294Z,97425.73
2019-02-10T15:17:32.224Z,97441.89
2019-02-10T15:20:17.096Z,97417.94
2019-02-10T15:22:58.566Z,97411.70
2019-02-10T15:25:39.862Z,97407.05
2019-02-10T15:28:13.282Z,97427.57
2019-02-10T15:30:51.829Z,97407.88
2019-02-10T15:33:24.443Z,97408.34
2019-02-10T15:35:59.166Z,97402.37
2019-02-10T15:38:32.357Z,97405.59
2019-02-10T15:41:02.325Z,97414.19
2019-02-10T15:43:39.818Z,97398.33
2019-02-10T15:46:10.574Z,97400.91
2019-02-10T15:48:50.852Z,97393.59
2019-02-10T15:51:31.377Z,97388.14
2019-02-10T15:53:54.462Z,97377.02
2019-02-10T15:56:29.672Z,97389.86
2019-02-10T15:59:04.602Z,97401.66
2019-02-10T16:01:46.367Z,97386.78
2019-02-10T16:04:26.695Z,97396.73
2019-02-10T16:06:59.971Z,97391.08
2019-02-10T16:09:32.015Z,97372.95
2019-02-10T16:12:09.036Z,97375.89
2019-02-10T16:14:44.339Z,97370.71
2019-02-10T16:17:23.315Z,97380.64
2019-02-10T16:19:59.136Z,97367.17
2019-02-10T16:22:36.237Z,97369.36
2019-02-10T16:25:13.583Z,97375.83
2019-02-10T16:27:44.476Z,97365.51
2019-02-10T16:30:26.847Z,97393.84
2019-02-10T16:33:01.596Z,97370.44
2019-02-10T16:35:41.984Z,97367.17
2019-02-10T16:38:34.031Z,97376.03
2019-02-10T16:41:18.560Z,97365.77
2019-02-10T16:44:04.108Z,97328.26
2019-02-10T16:46:34.855Z,97310.12
2019-02-10T16:52:07.749Z,97327.86
2019-02-10T16:54:54.185Z,97331.28
2019-02-10T16:57:27.300Z,97320.76
2019-02-10T16:59:59.040Z,97310.49
2019-02-10T17:02:30.747Z,97329.34
2019-02-10T17:05:04.671Z,97330.34
2019-02-10T17:07:44.023Z,97309.53
2019-02-10T17:10:22.931Z,97307.67
2019-02-10T17:12:58.239Z,97297.48
2019-02-10T17:15:29.661Z,97289.09
2019-02-10T17:18:14.114Z,97315.17
2019-02-10T17:21:08.826Z,97321.26
2019-02-10T17:23:59.589Z,97308.58
2019-02-10T17:26:43.532Z,97261.52
2019-02-10T17:29:19.631Z,97266.86
2019-02-10T17:32:02.854Z,97276.78
2019-02-10T17:34:43.615Z,97301.91
2019-02-10T17:37:19.821Z,97283.30
2019-02-10T17:39:53.253Z,97283.84
2019-02-10T17:42:23.291Z,97276.27
2019-02-10T17:44:53.325Z,97268.97
2019-02-10T17:47:30.225Z,97243.06
2019-02-10T17:50:02.017Z,97221.28
2019-02-10T17:52:38.102Z,97236.04
2019-02-10T17:55:10.723Z,97249.50
2019-02-10T17:57:44.843Z,97246.60
2019-02-10T18:00:21.176Z,97251.97
2019-02-10T18:02:56.057Z,97255.50
2019-02-10T18:05:30.561Z,97271.34
2019-02-10T18:08:10.484Z,97275.43
2019-02-10T18:10:42.730Z,97287.55
2019-02-10T18:13:16.159Z,97268.70
2019-02-10T18:15:59.145Z,97257.89
2019-02-10T18:18:34.094Z,97233.65
2019-02-10T18:21:18.677Z,97225.83
2019-02-10T18:23:56.104Z,97214.77
2019-02-10T18:26:27.662Z,97231.23
2019-02-10T18:29:25.066Z,97223.98
2019-02-10T18:32:20.660Z,97250.89
2019-02-10T18:35:05.540Z,97226.42
2019-02-10T18:37:47.769Z,97217.77
2019-02-10T18:40:37.579Z,97231.23
2019-02-10T18:43:13.568Z,97197.38
2019-02-10T18:45:47.309Z,97176.93
2019-02-10T18:48:37.628Z,97213.53
2019-02-10T18:51:48.449Z,97212.19
2019-02-10T18:54:29.547Z,97206.28
2019-02-10T18:57:17.686Z,97197.89
2019-02-10T19:00:16.430Z,97180.65
2019-02-10T19:03:09.113Z,97173.67
2019-02-10T19:06:37.175Z,97165.40
2019-02-10T19:09:31.260Z,97164.30
2019-02-10T19:12:18.629Z,97119.37
2019-02-10T19:15:06.557Z,97157.06
2019-02-10T19:17:52.724Z,97146.19
2019-02-10T19:20:35.571Z,97132.84
2019-02-10T19:23:19.047Z,97120.68
2019-02-10T19:25:55.041Z,97138.17
2019-02-10T19:28:31.103Z,97100.49
2019-02-10T19:31:11.395Z,97097.18
2019-02-10T19:34:05.377Z,97090.00
2019-02-10T19:36:59.748Z,97080.58
2019-02-10T19:39:45.495Z,97084.34
2019-02-10T19:42:35.061Z,97077.36
2019-02-10T19:45:09.141Z,97056.92
2019-02-10T19:47:55.517Z,97081.14
2019-02-10T19:50:45.710Z,97080.36
2019-02-10T19:53:25.310Z,97070.67
2019-02-10T19:56:15.230Z,97054.27
2019-02-10T19:59:02.993Z,97063.13
2019-02-10T20:01:39.656Z,97060.22
2019-02-10T20:04:25.857Z,97049.15
2019-02-10T20:07:21.239Z,97056.71
2019-02-10T20:09:57.054Z,97051.14
2019-02-10T20:12:41.683Z,97033.95
2019-02-10T20:15:22.350Z,97044.46
2019-02-10T20:17:56.970Z,97029.96
2019-02-10T20:23:26.477Z,97049.16
2019-02-10T20:26:37.499Z,97065.31
2019-02-10T20:29:13.440Z,97056.15
2019-02-10T20:32:08.554Z,97076.69
2019-02-10T20:35:17.464Z,97061.40
2019-02-10T20:37:56.467Z,97076.03
2019-02-10T20:41:09.007Z,97071.69
2019-02-10T20:44:10.285Z,97076.03
2019-02-10T20:46:52.544Z,97048.56
2019-02-10T20:49:36.623Z,97060.66
2019-02-10T20:52:24.342Z,97051.00
2019-02-10T20:54:59.712Z,97059.57
2019-02-10T20:57:46.098Z,97058.22
2019-02-10T21:00:32.092Z,97056.46
2019-02-10T21:03:08.360Z,97047.78
2019-02-10T21:05:42.005Z,97041.61
2019-02-10T21:08:18.672Z,97019.72
2019-02-10T21:11:19.979Z,97044.86
2019-02-10T21:14:08.978Z,96992.33
2019-02-10T21:16:58.799Z,96972.91
2019-02-10T21:19:46.817Z,96979.94
2019-02-10T21:22:24.292Z,96954.90
2019-02-10T21:25:03.570Z,96957.89
2019-02-10T21:27:56.016Z,96967.58
2019-02-10T21:30:30.609Z,96932.00
2019-02-10T21:33:02.409Z,96959.73
2019-02-10T21:35:38.284Z,96949.51
2019-02-10T21:38:12.885Z,96928.22
2019-02-10T21:41:00.436Z,96923.94
2019-02-10T21:43:32.475Z,96929.63
2019-02-10T21:46:08.312Z,96932.81
2019-02-10T21:48:39.316Z,96938.50
2019-02-10T21:51:10.532Z,96914.24
2019-02-10T21:53:40.754Z,96938.52
2019-02-10T21:56:13.072Z,96946.08
2019-02-10T21:58:44.776Z,96941.56
2019-02-10T22:01:17.907Z,96938.34
2019-02-10T22:03:51.782Z,96965.87
2019-02-10T22:06:22.919Z,96954.52
2019-02-10T22:08:53.552Z,96963.12
2019-02-10T22:11:23.898Z,96964.20
2019-02-10T22:13:54.122Z,96953.16
2019-02-10T22:16:26.585Z,96966.34
2019-02-10T22:18:56.790Z,96957.73
2019-02-10T22:21:28.448Z,96957.44
2019-02-10T22:23:59.107Z,96915.66
2019-02-10T22:26:29.283Z,96906.23
2019-02-10T22:28:59.485Z,96884.94
2019-02-10T22:31:29.793Z,96883.09
2019-02-10T22:34:00.074Z,96893.58
2019-02-10T22:36:59.533Z,96871.20
2019-02-10T22:39:59.371Z,96878.70
2019-02-10T22:42:46.039Z,96858.28
2019-02-10T22:45:18.178Z,96856.88
2019-02-10T22:47:48.702Z,96859.31
2019-02-10T22:50:47.444Z,96861.72
2019-02-10T22:53:22.133Z,96844.45
2019-02-10T22:55:59.622Z,96849.84
2019-02-10T22:58:33.687Z,96864.38
2019-02-10T23:01:26.618Z,96856.53
2019-02-10T23:04:32.097Z,96843.62
2019-02-10T23:07:29.034Z,96845.20
2019-02-10T23:10:14.560Z,96855.69
2019-02-10T23:13:08.379Z,96856.27
2019-02-10T23:15:51.334Z,96877.27
2019-02-10T23:18:23.948Z,96858.66
2019-02-10T23:21:26.288Z,96862.45
2019-02-10T23:24:23.185Z,96865.12
2019-02-10T23:27:42.564Z,96867.81
2019-02-10T23:40:39.704Z,96854.92
2019-02-10T23:43:45.280Z,96831.20
2019-02-10T23:46:48.787Z,96828.77
2019-02-10T23:53:23.914Z,96798.59
2019-02-10T23:56:20.098Z,96792.97
2019-02-10T23:59:28.725Z,96780.58
